createdAt,value
2018-11-20T00:03:34.789Z,16.63
2018-11-20T00:09:02.216Z,15.50
2018-11-20T00:14:29.769Z,14.53
2018-11-20T00:19:57.775Z,21.30
2018-11-20T00:25:25.678Z,14.00
2018-11-20T00:30:53.823Z,16.63
2018-11-20T00:36:21.281Z,15.07
2018-11-20T00:39:03.079Z,18.70
2018-11-20T00:44:30.111Z,14.73
2018-11-20T00:49:58.136Z,13.93
2018-11-20T00:55:26.242Z,14.60
2018-11-20T01:01:13.297Z,14.97
2018-11-20T01:03:55.073Z,13.80
2018-11-20T01:09:22.433Z,13.63
2018-11-20T01:14:50.260Z,13.93
2018-11-20T01:20:18.051Z,11.47
2018-11-20T01:25:46.541Z,12.13
2018-11-20T01:31:14.223Z,14.43
2018-11-20T01:36:42.054Z,15.30
2018-11-20T01:42:09.762Z,11.77
2018-11-20T01:47:37.710Z,11.97
2018-11-20T01:53:05.171Z,11.40
2018-11-20T01:58:59.676Z,12.30
2018-11-20T02:01:41.960Z,11.83
2018-11-20T02:07:09.279Z,11.20
2018-11-20T02:12:37.182Z,10.77
2018-11-20T02:18:04.483Z,11.67
2018-11-20T02:20:45.961Z,11.60
2018-11-20T02:26:13.651Z,12.47
2018-11-20T02:31:41.432Z,9.87
2018-11-20T02:34:23.111Z,9.40
2018-11-20T02:37:04.909Z,12.97
2018-11-20T02:45:38.267Z,11.27
2018-11-20T02:51:08.372Z,10.13
2018-11-20T02:56:35.975Z,11.73
2018-11-20T03:02:04.730Z,10.33
2018-11-20T03:07:35.186Z,11.13
2018-11-20T03:13:02.564Z,11.53
2018-11-20T03:18:30.702Z,11.70
2018-11-20T03:27:04.391Z,10.03
2018-11-20T03:29:45.332Z,10.07
2018-11-20T03:35:13.236Z,9.97
2018-11-20T03:40:39.821Z,11.00
2018-11-20T03:46:07.195Z,10.70
2018-11-20T03:51:34.827Z,10.10
2018-11-20T03:57:01.711Z,10.23
2018-11-20T04:02:29.200Z,10.23
2018-11-20T04:07:56.633Z,10.87
2018-11-20T04:13:24.010Z,10.33
2018-11-20T04:18:52.168Z,10.33
2018-11-20T04:24:19.597Z,9.73
2018-11-20T04:27:01.232Z,9.93
2018-11-20T04:32:29.090Z,10.10
2018-11-20T04:41:02.486Z,8.47
2018-11-20T04:46:29.677Z,10.37
2018-11-20T04:51:56.551Z,9.73
2018-11-20T04:57:23.800Z,9.77
2018-11-20T05:02:51.470Z,9.07
2018-11-20T05:08:19.642Z,9.47
2018-11-20T05:13:47.958Z,8.47
2018-11-20T05:16:29.698Z,9.83
2018-11-20T05:21:57.422Z,9.33
2018-11-20T05:27:24.028Z,9.50
2018-11-20T05:32:51.563Z,8.50
2018-11-20T05:38:18.972Z,9.00
2018-11-20T05:41:00.772Z,10.60
2018-11-20T05:46:28.688Z,9.67
2018-11-20T05:51:56.230Z,14.80
2018-11-20T05:57:23.821Z,10.93
2018-11-20T06:02:52.137Z,11.70
2018-11-20T06:08:20.329Z,12.87
2018-11-20T06:13:48.258Z,9.77
2018-11-20T06:19:15.836Z,14.93
2018-11-20T06:24:43.615Z,11.37
2018-11-20T06:30:10.973Z,12.77
2018-11-20T06:32:52.732Z,11.13
2018-11-20T06:35:54.329Z,9.93
2018-11-20T06:41:41.820Z,10.50
2018-11-20T06:47:09.234Z,11.67
2018-11-20T06:52:37.305Z,12.37
2018-11-20T06:58:05.616Z,10.87
2018-11-20T07:03:33.406Z,11.90
2018-11-20T07:06:15.139Z,15.07
2018-11-20T07:11:42.909Z,10.97
2018-11-20T07:17:31.872Z,14.57
2018-11-20T07:23:00.871Z,16.43
2018-11-20T07:28:28.731Z,13.40
2018-11-20T07:33:56.462Z,16.10
2018-11-20T07:36:38.289Z,18.77
2018-11-20T07:42:05.566Z,20.30
2018-11-20T07:47:35.891Z,28.60
2018-11-20T07:53:03.292Z,26.27
2018-11-20T07:58:31.544Z,26.50
2018-11-20T08:03:59.135Z,26.13
2018-11-20T08:09:27.244Z,23.90
2018-11-20T08:14:54.832Z,30.07
2018-11-20T08:20:22.332Z,23.20
2018-11-20T08:25:50.305Z,26.77
2018-11-20T08:31:17.509Z,26.20
2018-11-20T08:36:45.596Z,27.20
2018-11-20T08:42:34.719Z,25.40
2018-11-20T08:48:01.886Z,22.50
2018-11-20T08:53:30.072Z,21.47
2018-11-20T08:58:57.858Z,24.50
2018-11-20T09:01:40.160Z,22.60
2018-11-20T09:07:08.135Z,26.07
2018-11-20T09:12:35.682Z,24.20
2018-11-20T09:15:17.337Z,23.30
2018-11-20T09:20:45.550Z,21.07
2018-11-20T09:29:18.693Z,20.80
2018-11-20T09:34:46.090Z,20.30
2018-11-20T09:40:13.716Z,18.93
2018-11-20T09:46:02.809Z,18.83
2018-11-20T09:51:30.988Z,18.47
2018-11-20T09:54:31.578Z,21.30
2018-11-20T09:57:12.927Z,18.10
2018-11-20T10:02:41.062Z,18.70
2018-11-20T10:08:09.148Z,17.53
2018-11-20T10:10:50.411Z,18.57
2018-11-20T10:16:17.833Z,19.47
2018-11-20T10:22:11.828Z,15.53
2018-11-20T10:25:14.278Z,17.90
2018-11-20T10:27:55.808Z,16.93
2018-11-20T10:33:23.598Z,16.53
2018-11-20T10:38:50.963Z,16.67
2018-11-20T10:44:18.859Z,16.53
2018-11-20T10:49:46.274Z,16.00
2018-11-20T10:52:28.143Z,15.73
2018-11-20T10:57:55.710Z,17.20
2018-11-20T11:06:28.670Z,13.80
2018-11-20T11:11:57.675Z,14.03
2018-11-20T11:17:25.475Z,15.77
2018-11-20T11:22:52.641Z,15.47
2018-11-20T11:28:19.919Z,15.47
2018-11-20T11:31:01.871Z,15.33
2018-11-20T11:36:30.000Z,15.30
2018-11-20T11:41:57.547Z,17.30
2018-11-20T11:47:24.925Z,14.87
2018-11-20T11:52:52.250Z,12.57
2018-11-20T11:58:20.480Z,11.93
2018-11-20T12:03:48.631Z,13.03
2018-11-20T12:09:15.328Z,12.83
2018-11-20T12:14:43.481Z,12.37
2018-11-20T12:20:11.309Z,13.23
2018-11-20T12:25:39.693Z,11.27
2018-11-20T12:28:21.379Z,13.23
2018-11-20T12:33:49.110Z,12.57
2018-11-20T12:39:40.816Z,12.20
2018-11-20T12:45:06.269Z,11.77
2018-11-20T12:50:34.483Z,12.73
2018-11-20T12:56:02.430Z,10.13
2018-11-20T12:58:44.200Z,12.83
2018-11-20T13:04:11.607Z,13.30
2018-11-20T13:09:40.757Z,10.87
2018-11-20T13:15:07.472Z,13.13
2018-11-20T13:20:35.872Z,11.10
2018-11-20T13:26:03.628Z,11.50
2018-11-20T13:31:31.346Z,14.00
2018-11-20T13:36:58.978Z,13.30
2018-11-20T13:42:27.158Z,12.10
2018-11-20T13:47:54.702Z,12.17
2018-11-20T13:53:22.059Z,13.77
2018-11-20T13:56:03.910Z,11.57
2018-11-20T14:01:31.372Z,12.40
2018-11-20T14:06:59.045Z,10.80
2018-11-20T14:12:26.635Z,12.00
2018-11-20T14:18:17.470Z,10.23
2018-11-20T14:23:45.069Z,11.97
2018-11-20T14:29:12.489Z,9.43
2018-11-20T14:35:06.496Z,10.63
2018-11-20T14:40:33.853Z,10.97
2018-11-20T14:46:02.203Z,12.20
2018-11-20T14:51:29.879Z,9.17
2018-11-20T14:56:57.151Z,9.87
2018-11-20T15:03:30.731Z,9.80
2018-11-20T15:08:58.732Z,9.33
2018-11-20T15:14:26.922Z,10.03
2018-11-20T15:19:54.426Z,10.43
2018-11-20T15:22:36.040Z,10.47
2018-11-20T15:28:03.623Z,9.60
2018-11-20T15:33:31.115Z,10.00
2018-11-20T15:36:13.181Z,12.83
2018-11-20T15:41:40.671Z,10.73
2018-11-20T15:47:08.153Z,11.23
2018-11-20T15:52:36.018Z,12.60
2018-11-20T15:58:03.372Z,9.47
2018-11-20T16:03:31.731Z,12.10
2018-11-20T16:08:58.871Z,10.50
2018-11-20T16:14:26.487Z,9.00
2018-11-20T16:19:54.022Z,9.37
2018-11-20T16:25:21.850Z,9.63
2018-11-20T16:30:49.968Z,9.87
2018-11-20T16:36:18.556Z,9.70
2018-11-20T16:41:45.035Z,8.97
2018-11-20T16:47:13.104Z,10.20
2018-11-20T16:52:41.487Z,11.47
2018-11-20T16:58:08.885Z,7.80
2018-11-20T17:03:36.428Z,10.50
2018-11-20T17:09:04.931Z,14.40
2018-11-20T17:14:32.369Z,8.90
2018-11-20T17:19:59.975Z,11.23
2018-11-20T17:25:27.431Z,10.30
2018-11-20T17:30:55.327Z,9.70
2018-11-20T17:33:36.756Z,11.87
2018-11-20T17:39:04.483Z,9.40
2018-11-20T17:44:32.553Z,9.10
2018-11-20T17:49:59.383Z,11.07
2018-11-20T17:52:41.460Z,10.20
2018-11-20T17:58:08.575Z,9.97
2018-11-20T18:03:35.537Z,9.13
2018-11-20T18:09:02.752Z,8.70
2018-11-20T18:14:30.889Z,11.30
2018-11-20T18:20:20.439Z,12.00
2018-11-20T18:25:47.621Z,9.90
2018-11-20T18:31:15.577Z,8.53
2018-11-20T18:37:05.418Z,11.27
2018-11-20T18:42:59.838Z,10.47
2018-11-20T18:48:27.537Z,12.60
2018-11-20T18:53:56.216Z,10.60
2018-11-20T18:56:37.936Z,22.17
2018-11-20T19:02:05.978Z,13.67
2018-11-20T19:07:33.919Z,17.03
2018-11-20T19:13:01.908Z,15.60
2018-11-20T19:18:29.707Z,18.37
2018-11-20T19:23:57.248Z,17.23
2018-11-20T19:29:25.458Z,25.77
2018-11-20T19:34:52.888Z,23.73
2018-11-20T19:40:20.690Z,26.13
2018-11-20T19:45:48.216Z,24.70
2018-11-20T19:51:15.316Z,26.77
2018-11-20T19:56:43.233Z,25.40
2018-11-20T20:02:11.748Z,24.50
2018-11-20T20:07:40.141Z,23.00
2018-11-20T20:13:07.259Z,21.50
2018-11-20T20:18:35.463Z,25.00
2018-11-20T20:24:03.419Z,23.23
2018-11-20T20:27:07.826Z,20.13
2018-11-20T20:29:49.381Z,29.57
2018-11-20T20:35:16.745Z,26.03
2018-11-20T20:40:44.515Z,23.30
2018-11-20T20:43:26.300Z,27.63
2018-11-20T20:48:53.472Z,23.93
2018-11-20T20:54:21.189Z,25.27
2018-11-20T20:59:49.042Z,25.10
2018-11-20T21:05:17.346Z,25.80
2018-11-20T21:10:44.641Z,25.43
2018-11-20T21:16:12.240Z,26.20
2018-11-20T21:21:39.696Z,31.23
2018-11-20T21:27:07.023Z,22.57
2018-11-20T21:32:34.540Z,23.40
2018-11-20T21:38:01.859Z,26.57
2018-11-20T21:46:35.598Z,24.73
2018-11-20T21:52:02.792Z,21.97
2018-11-20T22:01:02.837Z,22.23
2018-11-20T22:06:30.766Z,20.13
2018-11-20T22:11:58.291Z,20.73
2018-11-20T22:17:26.186Z,23.10
2018-11-20T22:22:53.756Z,21.20
2018-11-20T22:28:21.316Z,16.83
2018-11-20T22:34:09.618Z,17.37
2018-11-20T22:39:37.467Z,17.13
2018-11-20T22:45:05.530Z,19.80
2018-11-20T22:50:33.528Z,16.70
2018-11-20T22:56:01.276Z,16.23
2018-11-20T23:01:29.415Z,16.03
2018-11-20T23:06:57.283Z,16.80
2018-11-20T23:12:25.272Z,15.20
2018-11-20T23:17:53.349Z,18.07
2018-11-20T23:23:20.865Z,16.50
2018-11-20T23:28:48.272Z,16.43
2018-11-20T23:31:29.790Z,15.53
2018-11-20T23:36:58.136Z,15.67
2018-11-20T23:42:26.547Z,16.20
2018-11-20T23:47:54.093Z,16.17
2018-11-20T23:53:22.062Z,15.47
2018-11-20T23:58:49.113Z,17.07
